sensor_id;sensor_type;location;lat;lon;timestamp;P1;durP1;ratioP1;P2;durP2;ratioP2
54145;SDS011;65909;49.422;7.738;2023-03-12T00:01:28;17.58;;;10.23;;
54145;SDS011;65909;49.422;7.738;2023-03-12T00:03:54;16.60;;;10.30;;
54145;SDS011;65909;49.422;7.738;2023-03-12T00:06:20;14.23;;;9.18;;
54145;SDS011;65909;49.422;7.738;2023-03-12T00:08:45;13.90;;;8.70;;
54145;SDS011;65909;49.422;7.738;2023-03-12T00:11:13;11.88;;;8.98;;
54145;SDS011;65909;49.422;7.738;2023-03-12T00:13:41;14.70;;;9.50;;
54145;SDS011;65909;49.422;7.738;2023-03-12T00:16:08;15.40;;;8.82;;
54145;SDS011;65909;49.422;7.738;2023-03-12T00:18:38;15.15;;;8.98;;
54145;SDS011;65909;49.422;7.738;2023-03-12T00:21:04;14.68;;;9.48;;
54145;SDS011;65909;49.422;7.738;2023-03-12T00:23:30;14.27;;;9.63;;
54145;SDS011;65909;49.422;7.738;2023-03-12T00:26:02;15.77;;;9.52;;
54145;SDS011;65909;49.422;7.738;2023-03-12T00:30:55;12.50;;;8.60;;
54145;SDS011;65909;49.422;7.738;2023-03-12T00:33:22;14.20;;;9.10;;
54145;SDS011;65909;49.422;7.738;2023-03-12T00:35:48;17.15;;;10.05;;
54145;SDS011;65909;49.422;7.738;2023-03-12T00:38:14;11.80;;;8.48;;
54145;SDS011;65909;49.422;7.738;2023-03-12T00:40:39;15.65;;;8.65;;
54145;SDS011;65909;49.422;7.738;2023-03-12T00:43:04;14.23;;;8.70;;
54145;SDS011;65909;49.422;7.738;2023-03-12T00:45:30;14.20;;;8.75;;
54145;SDS011;65909;49.422;7.738;2023-03-12T00:47:55;13.38;;;8.05;;
54145;SDS011;65909;49.422;7.738;2023-03-12T00:50:20;14.77;;;8.45;;
54145;SDS011;65909;49.422;7.738;2023-03-12T00:52:46;11.52;;;9.60;;
54145;SDS011;65909;49.422;7.738;2023-03-12T00:55:11;21.80;;;11.60;;
54145;SDS011;65909;49.422;7.738;2023-03-12T00:57:37;18.98;;;11.73;;
54145;SDS011;65909;49.422;7.738;2023-03-12T01:00:03;12.65;;;9.25;;
54145;SDS011;65909;49.422;7.738;2023-03-12T01:02:33;15.55;;;9.18;;
54145;SDS011;65909;49.422;7.738;2023-03-12T01:04:59;14.15;;;8.10;;
54145;SDS011;65909;49.422;7.738;2023-03-12T01:07:24;15.13;;;7.75;;
54145;SDS011;65909;49.422;7.738;2023-03-12T01:09:49;12.60;;;8.52;;
54145;SDS011;65909;49.422;7.738;2023-03-12T01:12:15;12.93;;;8.35;;
54145;SDS011;65909;49.422;7.738;2023-03-12T01:14:40;10.73;;;7.80;;
54145;SDS011;65909;49.422;7.738;2023-03-12T01:17:05;13.27;;;8.68;;
54145;SDS011;65909;49.422;7.738;2023-03-12T01:19:31;11.20;;;6.68;;
54145;SDS011;65909;49.422;7.738;2023-03-12T01:21:56;11.90;;;7.35;;
54145;SDS011;65909;49.422;7.738;2023-03-12T01:24:21;15.40;;;7.50;;
54145;SDS011;65909;49.422;7.738;2023-03-12T01:26:47;11.43;;;7.32;;
54145;SDS011;65909;49.422;7.738;2023-03-12T01:29:12;11.50;;;7.47;;
54145;SDS011;65909;49.422;7.738;2023-03-12T01:31:38;12.45;;;7.75;;
54145;SDS011;65909;49.422;7.738;2023-03-12T01:34:03;15.93;;;9.75;;
54145;SDS011;65909;49.422;7.738;2023-03-12T01:36:28;18.73;;;12.90;;
54145;SDS011;65909;49.422;7.738;2023-03-12T01:38:55;19.58;;;10.32;;
54145;SDS011;65909;49.422;7.738;2023-03-12T01:41:23;13.95;;;10.48;;
54145;SDS011;65909;49.422;7.738;2023-03-12T01:43:50;18.40;;;8.93;;
54145;SDS011;65909;49.422;7.738;2023-03-12T01:48:56;10.48;;;6.68;;
54145;SDS011;65909;49.422;7.738;2023-03-12T01:51:27;9.00;;;6.93;;
54145;SDS011;65909;49.422;7.738;2023-03-12T01:54:34;9.50;;;7.05;;
54145;SDS011;65909;49.422;7.738;2023-03-12T01:56:58;11.90;;;6.60;;
54145;SDS011;65909;49.422;7.738;2023-03-12T01:59:30;10.82;;;7.28;;
54145;SDS011;65909;49.422;7.738;2023-03-12T02:01:59;13.10;;;7.70;;
54145;SDS011;65909;49.422;7.738;2023-03-12T02:04:25;9.70;;;7.65;;
54145;SDS011;65909;49.422;7.738;2023-03-12T02:07:06;10.98;;;7.70;;
54145;SDS011;65909;49.422;7.738;2023-03-12T02:09:34;13.32;;;6.90;;
54145;SDS011;65909;49.422;7.738;2023-03-12T02:12:02;14.88;;;8.50;;
54145;SDS011;65909;49.422;7.738;2023-03-12T02:14:28;12.35;;;8.45;;
54145;SDS011;65909;49.422;7.738;2023-03-12T02:16:54;11.10;;;7.20;;
54145;SDS011;65909;49.422;7.738;2023-03-12T02:19:26;11.18;;;7.65;;
54145;SDS011;65909;49.422;7.738;2023-03-12T02:22:05;11.10;;;6.35;;
54145;SDS011;65909;49.422;7.738;2023-03-12T02:24:36;10.00;;;7.18;;
54145;SDS011;65909;49.422;7.738;2023-03-12T02:27:07;8.93;;;6.63;;
54145;SDS011;65909;49.422;7.738;2023-03-12T02:29:37;12.70;;;7.57;;
54145;SDS011;65909;49.422;7.738;2023-03-12T02:32:05;14.60;;;7.18;;
54145;SDS011;65909;49.422;7.738;2023-03-12T02:34:33;11.13;;;6.95;;
54145;SDS011;65909;49.422;7.738;2023-03-12T02:36:59;10.13;;;6.95;;
54145;SDS011;65909;49.422;7.738;2023-03-12T02:39:25;12.50;;;7.18;;
54145;SDS011;65909;49.422;7.738;2023-03-12T02:41:53;9.85;;;6.68;;
54145;SDS011;65909;49.422;7.738;2023-03-12T02:44:22;10.50;;;7.65;;
54145;SDS011;65909;49.422;7.738;2023-03-12T02:46:50;10.18;;;6.40;;
54145;SDS011;65909;49.422;7.738;2023-03-12T02:49:20;11.45;;;7.07;;
54145;SDS011;65909;49.422;7.738;2023-03-12T02:51:47;9.77;;;7.20;;
54145;SDS011;65909;49.422;7.738;2023-03-12T02:54:13;10.55;;;6.10;;
54145;SDS011;65909;49.422;7.738;2023-03-12T02:56:41;8.02;;;6.35;;
54145;SDS011;65909;49.422;7.738;2023-03-12T02:59:07;11.40;;;7.10;;
54145;SDS011;65909;49.422;7.738;2023-03-12T03:01:34;14.80;;;6.18;;
54145;SDS011;65909;49.422;7.738;2023-03-12T03:04:02;7.68;;;6.40;;
54145;SDS011;65909;49.422;7.738;2023-03-12T03:06:29;12.93;;;6.38;;
54145;SDS011;65909;49.422;7.738;2023-03-12T03:08:56;11.05;;;6.30;;
54145;SDS011;65909;49.422;7.738;2023-03-12T03:11:22;12.43;;;5.90;;
54145;SDS011;65909;49.422;7.738;2023-03-12T03:13:49;10.68;;;6.63;;
54145;SDS011;65909;49.422;7.738;2023-03-12T03:16:15;11.30;;;6.50;;
54145;SDS011;65909;49.422;7.738;2023-03-12T03:18:40;10.55;;;7.05;;
54145;SDS011;65909;49.422;7.738;2023-03-12T03:21:06;7.07;;;6.10;;
54145;SDS011;65909;49.422;7.738;2023-03-12T03:23:33;16.52;;;6.32;;
54145;SDS011;65909;49.422;7.738;2023-03-12T03:26:00;10.32;;;6.35;;
54145;SDS011;65909;49.422;7.738;2023-03-12T03:28:26;13.05;;;6.85;;
54145;SDS011;65909;49.422;7.738;2023-03-12T03:30:54;8.20;;;6.20;;
54145;SDS011;65909;49.422;7.738;2023-03-12T03:33:22;11.30;;;6.47;;
54145;SDS011;65909;49.422;7.738;2023-03-12T03:35:48;8.80;;;6.70;;
54145;SDS011;65909;49.422;7.738;2023-03-12T03:38:13;9.57;;;6.53;;
54145;SDS011;65909;49.422;7.738;2023-03-12T03:40:39;9.77;;;6.10;;
54145;SDS011;65909;49.422;7.738;2023-03-12T03:43:04;9.35;;;6.13;;
54145;SDS011;65909;49.422;7.738;2023-03-12T03:45:29;13.10;;;7.95;;
54145;SDS011;65909;49.422;7.738;2023-03-12T03:47:55;8.52;;;6.20;;
54145;SDS011;65909;49.422;7.738;2023-03-12T03:50:20;9.73;;;7.10;;
54145;SDS011;65909;49.422;7.738;2023-03-12T03:52:46;9.68;;;6.93;;
54145;SDS011;65909;49.422;7.738;2023-03-12T03:55:11;7.55;;;5.88;;
54145;SDS011;65909;49.422;7.738;2023-03-12T03:57:36;8.63;;;5.72;;
54145;SDS011;65909;49.422;7.738;2023-03-12T04:00:02;11.02;;;6.47;;
54145;SDS011;65909;49.422;7.738;2023-03-12T04:02:33;7.63;;;6.65;;
54145;SDS011;65909;49.422;7.738;2023-03-12T04:04:59;11.32;;;6.85;;
54145;SDS011;65909;49.422;7.738;2023-03-12T04:07:25;7.07;;;5.60;;
54145;SDS011;65909;49.422;7.738;2023-03-12T04:09:50;11.27;;;6.47;;
54145;SDS011;65909;49.422;7.738;2023-03-12T04:12:16;10.23;;;6.07;;
54145;SDS011;65909;49.422;7.738;2023-03-12T04:14:41;9.40;;;6.20;;
54145;SDS011;65909;49.422;7.738;2023-03-12T04:17:07;14.93;;;6.65;;
54145;SDS011;65909;49.422;7.738;2023-03-12T04:19:33;9.82;;;6.65;;
54145;SDS011;65909;49.422;7.738;2023-03-12T04:21:58;10.35;;;7.38;;
54145;SDS011;65909;49.422;7.738;2023-03-12T04:24:24;8.13;;;6.10;;
54145;SDS011;65909;49.422;7.738;2023-03-12T04:26:49;10.43;;;6.13;;
54145;SDS011;65909;49.422;7.738;2023-03-12T04:29:15;10.10;;;5.50;;
54145;SDS011;65909;49.422;7.738;2023-03-12T04:31:41;11.10;;;5.78;;
54145;SDS011;65909;49.422;7.738;2023-03-12T04:34:07;11.23;;;5.70;;
54145;SDS011;65909;49.422;7.738;2023-03-12T04:36:33;11.90;;;5.70;;
54145;SDS011;65909;49.422;7.738;2023-03-12T04:38:58;9.25;;;6.40;;
54145;SDS011;65909;49.422;7.738;2023-03-12T04:41:23;11.98;;;5.93;;
54145;SDS011;65909;49.422;7.738;2023-03-12T04:43:49;10.02;;;6.15;;
54145;SDS011;65909;49.422;7.738;2023-03-12T04:46:14;10.07;;;5.38;;
54145;SDS011;65909;49.422;7.738;2023-03-12T04:48:40;7.65;;;5.45;;
54145;SDS011;65909;49.422;7.738;2023-03-12T04:51:05;6.88;;;4.97;;
54145;SDS011;65909;49.422;7.738;2023-03-12T04:53:31;10.75;;;6.20;;
54145;SDS011;65909;49.422;7.738;2023-03-12T04:55:56;9.80;;;6.10;;
54145;SDS011;65909;49.422;7.738;2023-03-12T04:58:22;11.82;;;6.28;;
54145;SDS011;65909;49.422;7.738;2023-03-12T05:00:48;8.30;;;5.32;;
54145;SDS011;65909;49.422;7.738;2023-03-12T05:03:14;10.90;;;6.00;;
54145;SDS011;65909;49.422;7.738;2023-03-12T05:05:40;8.68;;;6.80;;
54145;SDS011;65909;49.422;7.738;2023-03-12T05:08:05;10.52;;;6.43;;
54145;SDS011;65909;49.422;7.738;2023-03-12T05:10:31;11.55;;;5.82;;
54145;SDS011;65909;49.422;7.738;2023-03-12T05:12:56;7.57;;;5.60;;
54145;SDS011;65909;49.422;7.738;2023-03-12T05:15:22;13.48;;;5.90;;
54145;SDS011;65909;49.422;7.738;2023-03-12T05:17:47;10.93;;;5.70;;
54145;SDS011;65909;49.422;7.738;2023-03-12T05:20:12;7.10;;;5.90;;
54145;SDS011;65909;49.422;7.738;2023-03-12T05:22:38;7.93;;;6.13;;
54145;SDS011;65909;49.422;7.738;2023-03-12T05:25:04;12.10;;;6.20;;
54145;SDS011;65909;49.422;7.738;2023-03-12T05:27:29;9.82;;;6.40;;
54145;SDS011;65909;49.422;7.738;2023-03-12T05:29:55;9.45;;;5.63;;
54145;SDS011;65909;49.422;7.738;2023-03-12T05:32:20;8.15;;;6.00;;
54145;SDS011;65909;49.422;7.738;2023-03-12T05:34:46;9.23;;;5.40;;
54145;SDS011;65909;49.422;7.738;2023-03-12T05:37:11;9.18;;;5.60;;
54145;SDS011;65909;49.422;7.738;2023-03-12T05:39:36;10.80;;;6.10;;
54145;SDS011;65909;49.422;7.738;2023-03-12T05:42:02;8.93;;;5.40;;
54145;SDS011;65909;49.422;7.738;2023-03-12T05:44:28;8.07;;;4.90;;
54145;SDS011;65909;49.422;7.738;2023-03-12T05:46:54;7.28;;;4.90;;
54145;SDS011;65909;49.422;7.738;2023-03-12T05:49:19;8.60;;;4.88;;
54145;SDS011;65909;49.422;7.738;2023-03-12T05:51:46;7.80;;;5.15;;
54145;SDS011;65909;49.422;7.738;2023-03-12T05:54:12;10.35;;;5.30;;
54145;SDS011;65909;49.422;7.738;2023-03-12T05:56:39;6.40;;;5.47;;
54145;SDS011;65909;49.422;7.738;2023-03-12T05:59:04;8.75;;;4.90;;
54145;SDS011;65909;49.422;7.738;2023-03-12T06:01:30;11.52;;;4.90;;
54145;SDS011;65909;49.422;7.738;2023-03-12T06:03:56;8.25;;;5.30;;
54145;SDS011;65909;49.422;7.738;2023-03-12T06:06:22;7.20;;;4.72;;
54145;SDS011;65909;49.422;7.738;2023-03-12T06:08:47;6.95;;;4.28;;
54145;SDS011;65909;49.422;7.738;2023-03-12T06:11:14;5.13;;;4.13;;
54145;SDS011;65909;49.422;7.738;2023-03-12T06:13:39;8.30;;;4.28;;
54145;SDS011;65909;49.422;7.738;2023-03-12T06:16:10;5.05;;;4.05;;
54145;SDS011;65909;49.422;7.738;2023-03-12T06:18:39;5.82;;;4.50;;
54145;SDS011;65909;49.422;7.738;2023-03-12T06:23:36;7.38;;;3.88;;
54145;SDS011;65909;49.422;7.738;2023-03-12T06:26:02;8.73;;;4.00;;
54145;SDS011;65909;49.422;7.738;2023-03-12T06:28:28;6.22;;;3.70;;
54145;SDS011;65909;49.422;7.738;2023-03-12T06:30:54;10.93;;;4.50;;
54145;SDS011;65909;49.422;7.738;2023-03-12T06:33:20;5.97;;;4.15;;
54145;SDS011;65909;49.422;7.738;2023-03-12T06:35:45;5.40;;;3.50;;
54145;SDS011;65909;49.422;7.738;2023-03-12T06:38:10;7.13;;;3.90;;
54145;SDS011;65909;49.422;7.738;2023-03-12T06:40:36;7.47;;;4.28;;
54145;SDS011;65909;49.422;7.738;2023-03-12T06:43:01;6.82;;;4.57;;
54145;SDS011;65909;49.422;7.738;2023-03-12T06:45:27;6.80;;;4.10;;
54145;SDS011;65909;49.422;7.738;2023-03-12T06:47:52;6.80;;;4.07;;
54145;SDS011;65909;49.422;7.738;2023-03-12T06:50:18;7.35;;;5.07;;
54145;SDS011;65909;49.422;7.738;2023-03-12T06:52:43;5.68;;;3.90;;
54145;SDS011;65909;49.422;7.738;2023-03-12T06:55:08;5.82;;;4.20;;
54145;SDS011;65909;49.422;7.738;2023-03-12T06:57:34;8.23;;;4.63;;
54145;SDS011;65909;49.422;7.738;2023-03-12T06:59:59;6.05;;;4.43;;
54145;SDS011;65909;49.422;7.738;2023-03-12T07:02:25;6.00;;;4.07;;
54145;SDS011;65909;49.422;7.738;2023-03-12T07:04:50;11.38;;;4.35;;
54145;SDS011;65909;49.422;7.738;2023-03-12T07:07:16;6.63;;;4.63;;
54145;SDS011;65909;49.422;7.738;2023-03-12T07:09:42;7.82;;;4.30;;
54145;SDS011;65909;49.422;7.738;2023-03-12T07:12:07;5.53;;;4.10;;
54145;SDS011;65909;49.422;7.738;2023-03-12T07:14:33;5.88;;;4.60;;
54145;SDS011;65909;49.422;7.738;2023-03-12T07:16:58;12.48;;;5.03;;
54145;SDS011;65909;49.422;7.738;2023-03-12T07:19:25;8.68;;;5.50;;
54145;SDS011;65909;49.422;7.738;2023-03-12T07:21:51;8.25;;;5.25;;
54145;SDS011;65909;49.422;7.738;2023-03-12T07:24:17;8.65;;;4.68;;
54145;SDS011;65909;49.422;7.738;2023-03-12T07:26:42;7.43;;;4.90;;
54145;SDS011;65909;49.422;7.738;2023-03-12T07:29:07;6.35;;;4.68;;
54145;SDS011;65909;49.422;7.738;2023-03-12T07:31:33;6.70;;;5.07;;
54145;SDS011;65909;49.422;7.738;2023-03-12T07:33:58;8.05;;;4.95;;
54145;SDS011;65909;49.422;7.738;2023-03-12T07:36:24;8.88;;;5.45;;
54145;SDS011;65909;49.422;7.738;2023-03-12T07:38:49;9.98;;;5.65;;
54145;SDS011;65909;49.422;7.738;2023-03-12T07:41:15;10.55;;;5.65;;
54145;SDS011;65909;49.422;7.738;2023-03-12T07:43:41;10.15;;;5.45;;
54145;SDS011;65909;49.422;7.738;2023-03-12T07:46:06;7.90;;;5.45;;
54145;SDS011;65909;49.422;7.738;2023-03-12T07:48:32;9.05;;;5.53;;
54145;SDS011;65909;49.422;7.738;2023-03-12T07:50:57;8.63;;;5.80;;
54145;SDS011;65909;49.422;7.738;2023-03-12T07:53:23;7.85;;;5.38;;
54145;SDS011;65909;49.422;7.738;2023-03-12T07:55:48;6.05;;;4.47;;
54145;SDS011;65909;49.422;7.738;2023-03-12T07:58:14;10.65;;;5.90;;
54145;SDS011;65909;49.422;7.738;2023-03-12T08:00:40;9.30;;;6.20;;
54145;SDS011;65909;49.422;7.738;2023-03-12T08:03:06;7.45;;;5.32;;
54145;SDS011;65909;49.422;7.738;2023-03-12T08:05:31;6.88;;;6.07;;
54145;SDS011;65909;49.422;7.738;2023-03-12T08:07:56;10.40;;;5.63;;
54145;SDS011;65909;49.422;7.738;2023-03-12T08:10:22;9.50;;;5.28;;
54145;SDS011;65909;49.422;7.738;2023-03-12T08:12:47;15.23;;;5.72;;
54145;SDS011;65909;49.422;7.738;2023-03-12T08:15:13;10.18;;;5.63;;
54145;SDS011;65909;49.422;7.738;2023-03-12T08:17:39;9.38;;;5.72;;
54145;SDS011;65909;49.422;7.738;2023-03-12T08:20:04;9.65;;;5.15;;
54145;SDS011;65909;49.422;7.738;2023-03-12T08:22:34;6.22;;;4.28;;
54145;SDS011;65909;49.422;7.738;2023-03-12T08:25:00;7.40;;;4.22;;
54145;SDS011;65909;49.422;7.738;2023-03-12T08:27:25;8.10;;;4.68;;
54145;SDS011;65909;49.422;7.738;2023-03-12T08:29:50;6.70;;;4.72;;
54145;SDS011;65909;49.422;7.738;2023-03-12T08:32:16;10.95;;;4.93;;
54145;SDS011;65909;49.422;7.738;2023-03-12T08:34:41;8.15;;;4.85;;
54145;SDS011;65909;49.422;7.738;2023-03-12T08:37:07;12.70;;;5.07;;
54145;SDS011;65909;49.422;7.738;2023-03-12T08:39:32;8.90;;;5.32;;
54145;SDS011;65909;49.422;7.738;2023-03-12T08:41:58;6.43;;;5.03;;
54145;SDS011;65909;49.422;7.738;2023-03-12T08:44:24;8.95;;;5.78;;
54145;SDS011;65909;49.422;7.738;2023-03-12T08:46:50;12.32;;;7.35;;
54145;SDS011;65909;49.422;7.738;2023-03-12T08:49:16;11.75;;;7.93;;
54145;SDS011;65909;49.422;7.738;2023-03-12T08:51:41;12.57;;;7.65;;
54145;SDS011;65909;49.422;7.738;2023-03-12T08:54:06;12.85;;;8.88;;
54145;SDS011;65909;49.422;7.738;2023-03-12T08:56:33;14.18;;;8.55;;
54145;SDS011;65909;49.422;7.738;2023-03-12T08:59:00;11.95;;;9.52;;
54145;SDS011;65909;49.422;7.738;2023-03-12T09:01:25;13.48;;;9.27;;
54145;SDS011;65909;49.422;7.738;2023-03-12T09:03:51;11.25;;;7.43;;
54145;SDS011;65909;49.422;7.738;2023-03-12T09:06:19;13.75;;;9.15;;
54145;SDS011;65909;49.422;7.738;2023-03-12T09:08:45;14.00;;;9.25;;
54145;SDS011;65909;49.422;7.738;2023-03-12T09:11:11;10.18;;;7.50;;
54145;SDS011;65909;49.422;7.738;2023-03-12T09:13:38;15.35;;;9.10;;
54145;SDS011;65909;49.422;7.738;2023-03-12T09:16:04;15.77;;;11.75;;
54145;SDS011;65909;49.422;7.738;2023-03-12T09:18:30;17.98;;;11.40;;
54145;SDS011;65909;49.422;7.738;2023-03-12T09:20:56;20.15;;;13.13;;
54145;SDS011;65909;49.422;7.738;2023-03-12T09:23:22;19.55;;;12.55;;
54145;SDS011;65909;49.422;7.738;2023-03-12T09:25:48;19.08;;;11.95;;
54145;SDS011;65909;49.422;7.738;2023-03-12T09:28:14;25.85;;;14.10;;
54145;SDS011;65909;49.422;7.738;2023-03-12T09:30:39;25.45;;;15.25;;
54145;SDS011;65909;49.422;7.738;2023-03-12T09:33:05;17.85;;;12.00;;
54145;SDS011;65909;49.422;7.738;2023-03-12T09:35:31;28.13;;;13.90;;
54145;SDS011;65909;49.422;7.738;2023-03-12T09:37:56;21.92;;;14.70;;
54145;SDS011;65909;49.422;7.738;2023-03-12T09:40:23;27.98;;;15.95;;
54145;SDS011;65909;49.422;7.738;2023-03-12T09:45:40;27.40;;;16.00;;
54145;SDS011;65909;49.422;7.738;2023-03-12T09:48:12;27.75;;;13.80;;
54145;SDS011;65909;49.422;7.738;2023-03-12T09:50:40;29.38;;;16.52;;
54145;SDS011;65909;49.422;7.738;2023-03-12T09:53:16;25.08;;;13.27;;
54145;SDS011;65909;49.422;7.738;2023-03-12T09:56:05;28.48;;;16.73;;
54145;SDS011;65909;49.422;7.738;2023-03-12T09:58:37;27.05;;;17.40;;
54145;SDS011;65909;49.422;7.738;2023-03-12T10:06:36;31.35;;;17.75;;
54145;SDS011;65909;49.422;7.738;2023-03-12T10:12:04;34.90;;;15.73;;
54145;SDS011;65909;49.422;7.738;2023-03-12T10:17:38;36.45;;;19.92;;
54145;SDS011;65909;49.422;7.738;2023-03-12T10:20:34;35.47;;;18.58;;
54145;SDS011;65909;49.422;7.738;2023-03-12T10:31:56;29.58;;;16.48;;
54145;SDS011;65909;49.422;7.738;2023-03-12T10:37:13;42.65;;;20.23;;
54145;SDS011;65909;49.422;7.738;2023-03-12T10:39:46;33.38;;;18.05;;
54145;SDS011;65909;49.422;7.738;2023-03-12T10:42:22;46.17;;;24.75;;
54145;SDS011;65909;49.422;7.738;2023-03-12T10:47:39;44.03;;;21.00;;
54145;SDS011;65909;49.422;7.738;2023-03-12T10:50:11;35.97;;;16.58;;
54145;SDS011;65909;49.422;7.738;2023-03-12T10:52:44;41.15;;;21.25;;
54145;SDS011;65909;49.422;7.738;2023-03-12T10:55:27;49.30;;;20.73;;
54145;SDS011;65909;49.422;7.738;2023-03-12T10:57:54;46.90;;;22.40;;
54145;SDS011;65909;49.422;7.738;2023-03-12T11:03:03;41.67;;;21.63;;
54145;SDS011;65909;49.422;7.738;2023-03-12T11:05:34;42.22;;;21.33;;
54145;SDS011;65909;49.422;7.738;2023-03-12T11:08:01;40.50;;;19.90;;
54145;SDS011;65909;49.422;7.738;2023-03-12T11:10:44;40.22;;;19.40;;
54145;SDS011;65909;49.422;7.738;2023-03-12T11:15:47;44.83;;;23.45;;
54145;SDS011;65909;49.422;7.738;2023-03-12T11:18:20;46.78;;;26.52;;
54145;SDS011;65909;49.422;7.738;2023-03-12T11:26:21;46.17;;;20.90;;
54145;SDS011;65909;49.422;7.738;2023-03-12T11:29:00;43.95;;;23.10;;
54145;SDS011;65909;49.422;7.738;2023-03-12T11:31:38;52.03;;;21.80;;
54145;SDS011;65909;49.422;7.738;2023-03-12T11:34:11;42.80;;;20.45;;
54145;SDS011;65909;49.422;7.738;2023-03-12T11:36:46;37.50;;;20.77;;
54145;SDS011;65909;49.422;7.738;2023-03-12T11:44:30;33.50;;;20.00;;
54145;SDS011;65909;49.422;7.738;2023-03-12T11:52:44;34.15;;;19.65;;
54145;SDS011;65909;49.422;7.738;2023-03-12T12:12:44;26.90;;;17.80;;
54145;SDS011;65909;49.422;7.738;2023-03-12T12:15:31;19.33;;;13.48;;
54145;SDS011;65909;49.422;7.738;2023-03-12T12:18:12;20.40;;;13.43;;
54145;SDS011;65909;49.422;7.738;2023-03-12T12:21:05;24.83;;;15.95;;
54145;SDS011;65909;49.422;7.738;2023-03-12T12:24:00;30.70;;;20.30;;
54145;SDS011;65909;49.422;7.738;2023-03-12T12:26:48;21.30;;;12.68;;
54145;SDS011;65909;49.422;7.738;2023-03-12T12:32:20;28.35;;;17.60;;
54145;SDS011;65909;49.422;7.738;2023-03-12T12:37:55;17.52;;;12.35;;
54145;SDS011;65909;49.422;7.738;2023-03-12T12:40:26;23.63;;;13.60;;
54145;SDS011;65909;49.422;7.738;2023-03-12T12:43:01;22.15;;;14.32;;
54145;SDS011;65909;49.422;7.738;2023-03-12T12:45:27;21.75;;;12.40;;
54145;SDS011;65909;49.422;7.738;2023-03-12T12:47:59;22.17;;;13.95;;
54145;SDS011;65909;49.422;7.738;2023-03-12T12:50:34;20.40;;;14.18;;
54145;SDS011;65909;49.422;7.738;2023-03-12T12:53:24;22.80;;;14.95;;
54145;SDS011;65909;49.422;7.738;2023-03-12T13:01:23;18.45;;;13.05;;
54145;SDS011;65909;49.422;7.738;2023-03-12T13:03:50;20.08;;;14.55;;
54145;SDS011;65909;49.422;7.738;2023-03-12T13:06:15;21.33;;;15.32;;
54145;SDS011;65909;49.422;7.738;2023-03-12T13:13:44;20.23;;;15.05;;
54145;SDS011;65909;49.422;7.738;2023-03-12T13:19:20;21.40;;;15.10;;
54145;SDS011;65909;49.422;7.738;2023-03-12T13:21:54;18.88;;;13.77;;
54145;SDS011;65909;49.422;7.738;2023-03-12T13:25:02;21.38;;;14.05;;
54145;SDS011;65909;49.422;7.738;2023-03-12T13:27:27;16.15;;;12.02;;
54145;SDS011;65909;49.422;7.738;2023-03-12T13:29:54;18.95;;;13.45;;
54145;SDS011;65909;49.422;7.738;2023-03-12T13:45:31;20.45;;;14.50;;
54145;SDS011;65909;49.422;7.738;2023-03-12T13:48:00;17.23;;;12.25;;
54145;SDS011;65909;49.422;7.738;2023-03-12T13:50:27;13.73;;;11.05;;
54145;SDS011;65909;49.422;7.738;2023-03-12T13:53:05;20.33;;;12.10;;
54145;SDS011;65909;49.422;7.738;2023-03-12T13:55:33;17.67;;;12.00;;
54145;SDS011;65909;49.422;7.738;2023-03-12T14:00:52;18.88;;;13.55;;
54145;SDS011;65909;49.422;7.738;2023-03-12T14:03:21;20.92;;;11.60;;
54145;SDS011;65909;49.422;7.738;2023-03-12T14:05:56;16.90;;;12.45;;
54145;SDS011;65909;49.422;7.738;2023-03-12T14:08:52;15.32;;;11.30;;
54145;SDS011;65909;49.422;7.738;2023-03-12T14:12:38;19.90;;;13.18;;
54145;SDS011;65909;49.422;7.738;2023-03-12T14:15:01;19.63;;;13.15;;
54145;SDS011;65909;49.422;7.738;2023-03-12T14:17:31;17.27;;;11.55;;
54145;SDS011;65909;49.422;7.738;2023-03-12T14:22:31;21.88;;;14.57;;
54145;SDS011;65909;49.422;7.738;2023-03-12T14:25:42;21.02;;;13.32;;
54145;SDS011;65909;49.422;7.738;2023-03-12T14:27:50;20.25;;;13.82;;
54145;SDS011;65909;49.422;7.738;2023-03-12T14:32:46;17.65;;;13.02;;
54145;SDS011;65909;49.422;7.738;2023-03-12T14:37:46;17.65;;;12.27;;
54145;SDS011;65909;49.422;7.738;2023-03-12T14:40:25;22.27;;;14.82;;
54145;SDS011;65909;49.422;7.738;2023-03-12T14:43:00;22.67;;;15.20;;
54145;SDS011;65909;49.422;7.738;2023-03-12T14:45:26;20.13;;;14.25;;
54145;SDS011;65909;49.422;7.738;2023-03-12T14:47:56;20.00;;;12.70;;
54145;SDS011;65909;49.422;7.738;2023-03-12T14:50:23;25.02;;;15.55;;
54145;SDS011;65909;49.422;7.738;2023-03-12T14:52:51;21.88;;;14.75;;
54145;SDS011;65909;49.422;7.738;2023-03-12T14:55:21;22.05;;;14.15;;
54145;SDS011;65909;49.422;7.738;2023-03-12T14:57:49;30.52;;;14.38;;
54145;SDS011;65909;49.422;7.738;2023-03-12T15:00:28;27.83;;;15.15;;
54145;SDS011;65909;49.422;7.738;2023-03-12T15:02:53;22.38;;;13.63;;
54145;SDS011;65909;49.422;7.738;2023-03-12T15:05:21;23.85;;;14.30;;
54145;SDS011;65909;49.422;7.738;2023-03-12T15:07:48;23.02;;;15.23;;
54145;SDS011;65909;49.422;7.738;2023-03-12T15:10:25;23.10;;;14.93;;
54145;SDS011;65909;49.422;7.738;2023-03-12T15:12:53;26.58;;;14.90;;
54145;SDS011;65909;49.422;7.738;2023-03-12T15:15:43;27.75;;;16.58;;
54145;SDS011;65909;49.422;7.738;2023-03-12T15:18:18;23.00;;;14.70;;
54145;SDS011;65909;49.422;7.738;2023-03-12T15:20:47;21.92;;;13.98;;
54145;SDS011;65909;49.422;7.738;2023-03-12T15:23:13;25.20;;;15.60;;
54145;SDS011;65909;49.422;7.738;2023-03-12T15:25:41;21.40;;;13.95;;
54145;SDS011;65909;49.422;7.738;2023-03-12T15:31:03;24.35;;;14.82;;
54145;SDS011;65909;49.422;7.738;2023-03-12T15:33:30;21.92;;;14.05;;
54145;SDS011;65909;49.422;7.738;2023-03-12T15:36:02;20.48;;;14.57;;
54145;SDS011;65909;49.422;7.738;2023-03-12T15:39:22;21.25;;;14.10;;
54145;SDS011;65909;49.422;7.738;2023-03-12T15:41:44;20.13;;;14.23;;
54145;SDS011;65909;49.422;7.738;2023-03-12T15:44:23;24.58;;;13.57;;
54145;SDS011;65909;49.422;7.738;2023-03-12T15:46:51;22.55;;;15.13;;
54145;SDS011;65909;49.422;7.738;2023-03-12T15:49:21;21.20;;;14.50;;
54145;SDS011;65909;49.422;7.738;2023-03-12T15:52:04;23.80;;;13.57;;
54145;SDS011;65909;49.422;7.738;2023-03-12T15:54:30;24.50;;;13.73;;
54145;SDS011;65909;49.422;7.738;2023-03-12T15:57:18;21.48;;;14.52;;
54145;SDS011;65909;49.422;7.738;2023-03-12T15:59:43;22.10;;;14.77;;
54145;SDS011;65909;49.422;7.738;2023-03-12T16:02:09;24.60;;;15.35;;
54145;SDS011;65909;49.422;7.738;2023-03-12T16:04:35;22.08;;;15.13;;
54145;SDS011;65909;49.422;7.738;2023-03-12T16:07:01;26.20;;;15.68;;
54145;SDS011;65909;49.422;7.738;2023-03-12T16:09:26;23.80;;;14.52;;
54145;SDS011;65909;49.422;7.738;2023-03-12T16:11:57;24.02;;;15.82;;
54145;SDS011;65909;49.422;7.738;2023-03-12T16:16:55;23.35;;;14.50;;
54145;SDS011;65909;49.422;7.738;2023-03-12T16:19:21;24.25;;;13.68;;
54145;SDS011;65909;49.422;7.738;2023-03-12T16:21:48;21.40;;;14.40;;
54145;SDS011;65909;49.422;7.738;2023-03-12T16:24:14;22.52;;;14.27;;
54145;SDS011;65909;49.422;7.738;2023-03-12T16:26:58;23.80;;;14.40;;
54145;SDS011;65909;49.422;7.738;2023-03-12T16:29:26;20.70;;;14.18;;
54145;SDS011;65909;49.422;7.738;2023-03-12T16:31:58;22.83;;;14.68;;
54145;SDS011;65909;49.422;7.738;2023-03-12T16:34:23;20.83;;;12.23;;
54145;SDS011;65909;49.422;7.738;2023-03-12T16:36:49;20.60;;;13.70;;
54145;SDS011;65909;49.422;7.738;2023-03-12T16:39:15;24.02;;;14.00;;
54145;SDS011;65909;49.422;7.738;2023-03-12T16:41:40;22.77;;;14.30;;
54145;SDS011;65909;49.422;7.738;2023-03-12T16:44:07;23.38;;;15.23;;
54145;SDS011;65909;49.422;7.738;2023-03-12T16:46:43;18.60;;;13.65;;